sensor_id;sensor_type;location;lat;lon;timestamp;temperature;humidity
50013;DHT22;35901;48.694;9.476;2022-10-31T00:00:26;7.90;99.90
50013;DHT22;35901;48.694;9.476;2022-10-31T00:02:51;7.90;99.90
50013;DHT22;35901;48.694;9.476;2022-10-31T00:05:17;8.00;99.90
50013;DHT22;35901;48.694;9.476;2022-10-31T00:07:42;8.00;99.90
50013;DHT22;35901;48.694;9.476;2022-10-31T00:10:08;7.90;99.90
50013;DHT22;35901;48.694;9.476;2022-10-31T00:12:34;7.80;99.90
50013;DHT22;35901;48.694;9.476;2022-10-31T00:15:00;7.80;99.90
50013;DHT22;35901;48.694;9.476;2022-10-31T00:17:25;7.70;99.90
50013;DHT22;35901;48.694;9.476;2022-10-31T00:19:51;7.70;99.90
50013;DHT22;35901;48.694;9.476;2022-10-31T00:22:17;7.60;99.90
50013;DHT22;35901;48.694;9.476;2022-10-31T00:24:42;7.60;99.90
50013;DHT22;35901;48.694;9.476;2022-10-31T00:27:08;7.60;99.90
50013;DHT22;35901;48.694;9.476;2022-10-31T00:29:33;7.70;99.90
50013;DHT22;35901;48.694;9.476;2022-10-31T00:31:59;7.70;99.90
50013;DHT22;35901;48.694;9.476;2022-10-31T00:34:25;7.60;99.90
50013;DHT22;35901;48.694;9.476;2022-10-31T00:36:51;7.50;99.90
50013;DHT22;35901;48.694;9.476;2022-10-31T00:39:17;7.30;99.90
50013;DHT22;35901;48.694;9.476;2022-10-31T00:41:42;7.10;99.90
50013;DHT22;35901;48.694;9.476;2022-10-31T00:44:11;7.10;99.90
50013;DHT22;35901;48.694;9.476;2022-10-31T00:46:37;7.00;99.90
50013;DHT22;35901;48.694;9.476;2022-10-31T00:49:02;7.00;99.90
50013;DHT22;35901;48.694;9.476;2022-10-31T00:51:28;7.00;99.90
50013;DHT22;35901;48.694;9.476;2022-10-31T00:53:54;6.90;99.90
50013;DHT22;35901;48.694;9.476;2022-10-31T00:56:19;6.90;99.90
50013;DHT22;35901;48.694;9.476;2022-10-31T00:58:45;6.80;99.90
50013;DHT22;35901;48.694;9.476;2022-10-31T01:01:11;6.80;99.90
50013;DHT22;35901;48.694;9.476;2022-10-31T01:03:36;6.80;99.90
50013;DHT22;35901;48.694;9.476;2022-10-31T01:06:07;6.90;99.90
50013;DHT22;35901;48.694;9.476;2022-10-31T01:08:34;6.80;99.90
50013;DHT22;35901;48.694;9.476;2022-10-31T01:13:31;6.70;99.90
50013;DHT22;35901;48.694;9.476;2022-10-31T01:15:58;6.60;99.90
50013;DHT22;35901;48.694;9.476;2022-10-31T01:18:27;6.50;99.90
50013;DHT22;35901;48.694;9.476;2022-10-31T01:21:00;6.50;99.90
50013;DHT22;35901;48.694;9.476;2022-10-31T01:23:27;6.60;99.90
50013;DHT22;35901;48.694;9.476;2022-10-31T01:26:05;6.60;99.90
50013;DHT22;35901;48.694;9.476;2022-10-31T01:28:31;6.60;99.90
50013;DHT22;35901;48.694;9.476;2022-10-31T01:31:02;6.50;99.90
50013;DHT22;35901;48.694;9.476;2022-10-31T01:33:28;6.50;99.90
50013;DHT22;35901;48.694;9.476;2022-10-31T01:35:54;6.40;99.90
50013;DHT22;35901;48.694;9.476;2022-10-31T01:38:19;6.40;99.90
50013;DHT22;35901;48.694;9.476;2022-10-31T01:40:45;6.40;99.90
50013;DHT22;35901;48.694;9.476;2022-10-31T01:43:13;6.40;99.90
50013;DHT22;35901;48.694;9.476;2022-10-31T01:45:39;6.30;99.90
50013;DHT22;35901;48.694;9.476;2022-10-31T01:48:15;6.30;99.90
50013;DHT22;35901;48.694;9.476;2022-10-31T01:50:43;6.20;99.90
50013;DHT22;35901;48.694;9.476;2022-10-31T01:53:11;6.30;99.90
50013;DHT22;35901;48.694;9.476;2022-10-31T01:55:42;6.30;99.90
50013;DHT22;35901;48.694;9.476;2022-10-31T01:58:16;6.30;99.90
50013;DHT22;35901;48.694;9.476;2022-10-31T02:00:47;6.30;99.90
50013;DHT22;35901;48.694;9.476;2022-10-31T02:03:15;6.20;99.90
50013;DHT22;35901;48.694;9.476;2022-10-31T02:05:42;6.30;99.90
50013;DHT22;35901;48.694;9.476;2022-10-31T02:08:17;6.30;99.90
50013;DHT22;35901;48.694;9.476;2022-10-31T02:10:48;6.30;99.90
50013;DHT22;35901;48.694;9.476;2022-10-31T02:13:15;6.30;99.90
50013;DHT22;35901;48.694;9.476;2022-10-31T02:15:50;6.20;99.90
50013;DHT22;35901;48.694;9.476;2022-10-31T02:18:17;6.30;99.90
50013;DHT22;35901;48.694;9.476;2022-10-31T02:34:37;6.70;99.90
50013;DHT22;35901;48.694;9.476;2022-10-31T02:37:13;6.70;99.90
50013;DHT22;35901;48.694;9.476;2022-10-31T02:39:51;6.70;99.90
50013;DHT22;35901;48.694;9.476;2022-10-31T02:43:02;6.60;99.90
50013;DHT22;35901;48.694;9.476;2022-10-31T02:48:31;6.40;99.90
50013;DHT22;35901;48.694;9.476;2022-10-31T02:51:02;6.30;99.90
50013;DHT22;35901;48.694;9.476;2022-10-31T02:53:33;6.30;99.90
50013;DHT22;35901;48.694;9.476;2022-10-31T02:56:05;6.40;99.90
50013;DHT22;35901;48.694;9.476;2022-10-31T02:58:37;6.40;99.90
50013;DHT22;35901;48.694;9.476;2022-10-31T03:04:16;6.40;99.90
50013;DHT22;35901;48.694;9.476;2022-10-31T03:07:11;6.40;99.90
50013;DHT22;35901;48.694;9.476;2022-10-31T03:10:04;6.40;99.90
50013;DHT22;35901;48.694;9.476;2022-10-31T03:15:10;6.80;99.90
50013;DHT22;35901;48.694;9.476;2022-10-31T03:17:47;6.90;99.90
50013;DHT22;35901;48.694;9.476;2022-10-31T03:20:20;7.00;99.90
50013;DHT22;35901;48.694;9.476;2022-10-31T03:22:49;7.00;99.90
50013;DHT22;35901;48.694;9.476;2022-10-31T03:25:16;7.10;99.90
50013;DHT22;35901;48.694;9.476;2022-10-31T03:27:43;7.10;99.90
50013;DHT22;35901;48.694;9.476;2022-10-31T03:30:12;7.10;99.90
50013;DHT22;35901;48.694;9.476;2022-10-31T03:32:57;7.10;99.90
50013;DHT22;35901;48.694;9.476;2022-10-31T03:35:26;6.90;99.90
50013;DHT22;35901;48.694;9.476;2022-10-31T03:37:54;6.80;99.90
50013;DHT22;35901;48.694;9.476;2022-10-31T03:40:22;6.80;99.90
50013;DHT22;35901;48.694;9.476;2022-10-31T03:42:54;6.80;99.90
50013;DHT22;35901;48.694;9.476;2022-10-31T03:45:24;6.70;99.90
50013;DHT22;35901;48.694;9.476;2022-10-31T03:47:52;6.60;99.90
50013;DHT22;35901;48.694;9.476;2022-10-31T03:50:20;6.50;99.90
50013;DHT22;35901;48.694;9.476;2022-10-31T03:53:05;6.40;99.90
50013;DHT22;35901;48.694;9.476;2022-10-31T03:55:41;6.20;99.90
50013;DHT22;35901;48.694;9.476;2022-10-31T03:58:14;6.10;99.90
50013;DHT22;35901;48.694;9.476;2022-10-31T04:00:44;6.20;99.90
50013;DHT22;35901;48.694;9.476;2022-10-31T04:03:22;6.20;99.90
50013;DHT22;35901;48.694;9.476;2022-10-31T04:05:53;6.10;99.90
50013;DHT22;35901;48.694;9.476;2022-10-31T04:08:24;6.10;99.90
50013;DHT22;35901;48.694;9.476;2022-10-31T04:10:53;6.10;99.90
50013;DHT22;35901;48.694;9.476;2022-10-31T04:13:24;6.00;99.90
50013;DHT22;35901;48.694;9.476;2022-10-31T04:15:59;6.00;99.90
50013;DHT22;35901;48.694;9.476;2022-10-31T04:18:25;6.00;99.90
50013;DHT22;35901;48.694;9.476;2022-10-31T04:21:04;5.90;99.90
50013;DHT22;35901;48.694;9.476;2022-10-31T04:23:30;5.90;99.90
50013;DHT22;35901;48.694;9.476;2022-10-31T04:25:58;5.90;99.90
50013;DHT22;35901;48.694;9.476;2022-10-31T04:28:24;5.90;99.90
50013;DHT22;35901;48.694;9.476;2022-10-31T04:30:50;5.80;99.90
50013;DHT22;35901;48.694;9.476;2022-10-31T04:33:16;5.80;99.90
50013;DHT22;35901;48.694;9.476;2022-10-31T04:35:43;5.80;99.90
50013;DHT22;35901;48.694;9.476;2022-10-31T04:38:09;5.80;99.90
50013;DHT22;35901;48.694;9.476;2022-10-31T04:40:37;5.80;99.90
50013;DHT22;35901;48.694;9.476;2022-10-31T04:43:20;5.70;99.90
50013;DHT22;35901;48.694;9.476;2022-10-31T04:45:46;5.60;99.90
50013;DHT22;35901;48.694;9.476;2022-10-31T04:48:13;5.60;99.90
50013;DHT22;35901;48.694;9.476;2022-10-31T04:50:46;5.50;99.90
50013;DHT22;35901;48.694;9.476;2022-10-31T04:53:13;5.60;99.90
50013;DHT22;35901;48.694;9.476;2022-10-31T04:55:59;5.60;99.90
50013;DHT22;35901;48.694;9.476;2022-10-31T04:58:33;5.60;99.90
50013;DHT22;35901;48.694;9.476;2022-10-31T05:00:59;5.60;99.90
50013;DHT22;35901;48.694;9.476;2022-10-31T05:03:25;5.70;99.90
50013;DHT22;35901;48.694;9.476;2022-10-31T05:05:51;5.90;99.90
50013;DHT22;35901;48.694;9.476;2022-10-31T05:08:17;6.10;99.90
50013;DHT22;35901;48.694;9.476;2022-10-31T05:10:43;6.10;99.90
50013;DHT22;35901;48.694;9.476;2022-10-31T05:13:10;6.20;99.90
50013;DHT22;35901;48.694;9.476;2022-10-31T05:16:14;6.10;99.90
50013;DHT22;35901;48.694;9.476;2022-10-31T05:18:58;5.90;99.90
50013;DHT22;35901;48.694;9.476;2022-10-31T05:21:56;5.70;99.90
50013;DHT22;35901;48.694;9.476;2022-10-31T05:24:22;5.50;99.90
50013;DHT22;35901;48.694;9.476;2022-10-31T05:26:49;5.60;99.90
50013;DHT22;35901;48.694;9.476;2022-10-31T05:29:15;5.60;99.90
50013;DHT22;35901;48.694;9.476;2022-10-31T05:31:41;5.70;99.90
50013;DHT22;35901;48.694;9.476;2022-10-31T05:34:13;5.80;99.90
50013;DHT22;35901;48.694;9.476;2022-10-31T05:36:44;5.80;99.90
50013;DHT22;35901;48.694;9.476;2022-10-31T05:39:14;5.70;99.90
50013;DHT22;35901;48.694;9.476;2022-10-31T05:41:42;5.70;99.90
50013;DHT22;35901;48.694;9.476;2022-10-31T05:44:18;5.60;99.90
50013;DHT22;35901;48.694;9.476;2022-10-31T05:47:02;5.50;99.90
50013;DHT22;35901;48.694;9.476;2022-10-31T05:49:46;5.40;99.90
50013;DHT22;35901;48.694;9.476;2022-10-31T05:52:31;5.40;99.90
50013;DHT22;35901;48.694;9.476;2022-10-31T05:55:04;5.30;99.90
50013;DHT22;35901;48.694;9.476;2022-10-31T05:57:32;5.30;99.90
50013;DHT22;35901;48.694;9.476;2022-10-31T05:59:58;5.30;99.90
50013;DHT22;35901;48.694;9.476;2022-10-31T06:02:24;5.30;99.90
50013;DHT22;35901;48.694;9.476;2022-10-31T06:05:20;5.30;99.90
50013;DHT22;35901;48.694;9.476;2022-10-31T06:07:45;5.30;99.90
50013;DHT22;35901;48.694;9.476;2022-10-31T06:10:11;5.30;99.90
50013;DHT22;35901;48.694;9.476;2022-10-31T06:12:37;5.40;99.90
50013;DHT22;35901;48.694;9.476;2022-10-31T06:15:28;5.40;99.90
50013;DHT22;35901;48.694;9.476;2022-10-31T06:18:04;5.50;99.90
50013;DHT22;35901;48.694;9.476;2022-10-31T06:20:37;5.60;99.90
50013;DHT22;35901;48.694;9.476;2022-10-31T06:23:04;5.60;99.90
50013;DHT22;35901;48.694;9.476;2022-10-31T06:25:31;5.60;99.90
50013;DHT22;35901;48.694;9.476;2022-10-31T06:27:57;5.50;99.90
50013;DHT22;35901;48.694;9.476;2022-10-31T06:30:29;5.50;99.90
50013;DHT22;35901;48.694;9.476;2022-10-31T06:32:58;5.50;99.90
50013;DHT22;35901;48.694;9.476;2022-10-31T06:35:26;5.50;99.90
50013;DHT22;35901;48.694;9.476;2022-10-31T06:37:53;5.40;99.90
50013;DHT22;35901;48.694;9.476;2022-10-31T06:40:40;5.50;99.90
50013;DHT22;35901;48.694;9.476;2022-10-31T06:43:21;5.50;99.90
50013;DHT22;35901;48.694;9.476;2022-10-31T06:45:48;5.60;99.90
50013;DHT22;35901;48.694;9.476;2022-10-31T06:48:19;5.70;99.90
50013;DHT22;35901;48.694;9.476;2022-10-31T06:51:03;5.90;99.90
50013;DHT22;35901;48.694;9.476;2022-10-31T06:53:29;6.10;99.90
50013;DHT22;35901;48.694;9.476;2022-10-31T06:55:56;6.20;99.90
50013;DHT22;35901;48.694;9.476;2022-10-31T06:58:22;6.20;99.90
50013;DHT22;35901;48.694;9.476;2022-10-31T07:00:49;6.30;99.90
50013;DHT22;35901;48.694;9.476;2022-10-31T07:03:17;6.30;99.90
50013;DHT22;35901;48.694;9.476;2022-10-31T07:05:44;6.20;99.90
50013;DHT22;35901;48.694;9.476;2022-10-31T07:08:12;6.20;99.90
50013;DHT22;35901;48.694;9.476;2022-10-31T07:10:39;6.30;99.90
50013;DHT22;35901;48.694;9.476;2022-10-31T07:13:11;6.40;99.90
50013;DHT22;35901;48.694;9.476;2022-10-31T07:15:39;6.60;99.90
50013;DHT22;35901;48.694;9.476;2022-10-31T07:18:07;6.80;99.90
50013;DHT22;35901;48.694;9.476;2022-10-31T07:20:33;7.00;99.90
50013;DHT22;35901;48.694;9.476;2022-10-31T07:23:11;7.20;99.90
50013;DHT22;35901;48.694;9.476;2022-10-31T07:25:38;7.30;99.90
50013;DHT22;35901;48.694;9.476;2022-10-31T07:28:13;7.50;99.90
50013;DHT22;35901;48.694;9.476;2022-10-31T07:30:39;7.70;99.90
50013;DHT22;35901;48.694;9.476;2022-10-31T07:33:05;7.90;99.90
50013;DHT22;35901;48.694;9.476;2022-10-31T07:35:51;8.00;99.90
50013;DHT22;35901;48.694;9.476;2022-10-31T07:38:21;8.30;99.90
50013;DHT22;35901;48.694;9.476;2022-10-31T07:40:52;8.50;99.90
50013;DHT22;35901;48.694;9.476;2022-10-31T07:43:22;8.60;99.90
50013;DHT22;35901;48.694;9.476;2022-10-31T07:46:16;8.60;99.90
50013;DHT22;35901;48.694;9.476;2022-10-31T07:49:20;8.60;99.90
50013;DHT22;35901;48.694;9.476;2022-10-31T07:52:04;8.50;99.90
50013;DHT22;35901;48.694;9.476;2022-10-31T07:54:34;8.50;99.90
50013;DHT22;35901;48.694;9.476;2022-10-31T07:57:00;8.50;99.90
50013;DHT22;35901;48.694;9.476;2022-10-31T07:59:26;8.50;99.90
50013;DHT22;35901;48.694;9.476;2022-10-31T08:01:53;8.60;99.90
50013;DHT22;35901;48.694;9.476;2022-10-31T08:04:48;8.70;99.90
50013;DHT22;35901;48.694;9.476;2022-10-31T08:07:52;8.80;99.90
50013;DHT22;35901;48.694;9.476;2022-10-31T08:10:21;8.90;99.90
50013;DHT22;35901;48.694;9.476;2022-10-31T08:12:47;9.00;99.90
50013;DHT22;35901;48.694;9.476;2022-10-31T08:15:19;9.10;99.90
50013;DHT22;35901;48.694;9.476;2022-10-31T08:17:45;9.30;99.90
50013;DHT22;35901;48.694;9.476;2022-10-31T08:20:11;9.40;99.90
50013;DHT22;35901;48.694;9.476;2022-10-31T08:22:43;9.50;99.90
50013;DHT22;35901;48.694;9.476;2022-10-31T08:25:50;9.60;99.90
50013;DHT22;35901;48.694;9.476;2022-10-31T08:28:16;9.60;99.90
50013;DHT22;35901;48.694;9.476;2022-10-31T08:30:43;9.70;99.90
50013;DHT22;35901;48.694;9.476;2022-10-31T08:33:37;9.80;99.90
50013;DHT22;35901;48.694;9.476;2022-10-31T08:36:19;9.90;99.90
50013;DHT22;35901;48.694;9.476;2022-10-31T08:38:54;10.10;99.90
50013;DHT22;35901;48.694;9.476;2022-10-31T08:41:20;10.20;99.90
50013;DHT22;35901;48.694;9.476;2022-10-31T08:43:47;10.30;99.90
50013;DHT22;35901;48.694;9.476;2022-10-31T08:46:14;10.50;99.90
50013;DHT22;35901;48.694;9.476;2022-10-31T08:48:41;10.60;99.90
50013;DHT22;35901;48.694;9.476;2022-10-31T08:51:09;10.60;99.90
50013;DHT22;35901;48.694;9.476;2022-10-31T08:53:35;10.80;99.90
50013;DHT22;35901;48.694;9.476;2022-10-31T08:56:27;10.90;99.90
50013;DHT22;35901;48.694;9.476;2022-10-31T08:58:53;11.00;99.90
50013;DHT22;35901;48.694;9.476;2022-10-31T09:01:28;11.10;99.90
50013;DHT22;35901;48.694;9.476;2022-10-31T09:03:54;11.20;99.90
50013;DHT22;35901;48.694;9.476;2022-10-31T09:06:20;11.30;99.90
50013;DHT22;35901;48.694;9.476;2022-10-31T09:08:47;11.30;99.90
50013;DHT22;35901;48.694;9.476;2022-10-31T09:11:13;11.30;99.90
50013;DHT22;35901;48.694;9.476;2022-10-31T09:13:56;11.40;99.90
50013;DHT22;35901;48.694;9.476;2022-10-31T09:16:25;11.50;99.90
50013;DHT22;35901;48.694;9.476;2022-10-31T09:18:50;11.50;99.90
50013;DHT22;35901;48.694;9.476;2022-10-31T09:21:16;11.60;99.90
50013;DHT22;35901;48.694;9.476;2022-10-31T09:23:42;11.70;99.90
50013;DHT22;35901;48.694;9.476;2022-10-31T09:26:08;11.70;99.90
50013;DHT22;35901;48.694;9.476;2022-10-31T09:28:37;11.80;99.90
50013;DHT22;35901;48.694;9.476;2022-10-31T09:31:08;11.90;99.90
50013;DHT22;35901;48.694;9.476;2022-10-31T09:33:52;12.10;99.90
50013;DHT22;35901;48.694;9.476;2022-10-31T09:36:37;12.40;99.90
50013;DHT22;35901;48.694;9.476;2022-10-31T09:39:06;12.70;99.90
50013;DHT22;35901;48.694;9.476;2022-10-31T09:41:42;12.80;99.90
50013;DHT22;35901;48.694;9.476;2022-10-31T09:50:56;13.10;99.90
50013;DHT22;35901;48.694;9.476;2022-10-31T09:54:05;13.20;99.90
50013;DHT22;35901;48.694;9.476;2022-10-31T09:56:38;13.50;99.90
50013;DHT22;35901;48.694;9.476;2022-10-31T09:59:06;13.70;99.90
50013;DHT22;35901;48.694;9.476;2022-10-31T10:01:54;13.80;99.90
50013;DHT22;35901;48.694;9.476;2022-10-31T10:04:38;14.00;99.90
50013;DHT22;35901;48.694;9.476;2022-10-31T10:16:07;14.40;99.90
50013;DHT22;35901;48.694;9.476;2022-10-31T10:27:34;15.10;99.90
50013;DHT22;35901;48.694;9.476;2022-10-31T10:30:24;15.20;99.90
50013;DHT22;35901;48.694;9.476;2022-10-31T10:32:56;15.30;99.90
50013;DHT22;35901;48.694;9.476;2022-10-31T10:38:01;15.50;99.90
50013;DHT22;35901;48.694;9.476;2022-10-31T10:40:28;15.70;99.90
50013;DHT22;35901;48.694;9.476;2022-10-31T10:46:18;15.90;99.90
50013;DHT22;35901;48.694;9.476;2022-10-31T10:49:32;16.00;99.90
50013;DHT22;35901;48.694;9.476;2022-10-31T10:52:10;16.10;99.90
50013;DHT22;35901;48.694;9.476;2022-10-31T10:58:01;16.10;99.90
50013;DHT22;35901;48.694;9.476;2022-10-31T11:00:45;16.10;99.90
50013;DHT22;35901;48.694;9.476;2022-10-31T11:03:13;16.20;99.90
50013;DHT22;35901;48.694;9.476;2022-10-31T11:08:30;16.10;99.90
50013;DHT22;35901;48.694;9.476;2022-10-31T11:11:10;16.10;99.90
50013;DHT22;35901;48.694;9.476;2022-10-31T11:13:41;16.10;99.90
50013;DHT22;35901;48.694;9.476;2022-10-31T11:16:31;16.10;99.90
50013;DHT22;35901;48.694;9.476;2022-10-31T11:19:19;16.10;99.90
50013;DHT22;35901;48.694;9.476;2022-10-31T11:21:46;16.30;99.90
50013;DHT22;35901;48.694;9.476;2022-10-31T11:24:16;16.40;99.90
50013;DHT22;35901;48.694;9.476;2022-10-31T11:26:47;16.60;99.90
50013;DHT22;35901;48.694;9.476;2022-10-31T11:29:25;16.80;99.90
50013;DHT22;35901;48.694;9.476;2022-10-31T11:31:56;17.10;99.90
50013;DHT22;35901;48.694;9.476;2022-10-31T11:34:30;17.30;99.90
50013;DHT22;35901;48.694;9.476;2022-10-31T11:39:45;17.70;99.90
50013;DHT22;35901;48.694;9.476;2022-10-31T11:42:14;17.80;99.90
50013;DHT22;35901;48.694;9.476;2022-10-31T11:44:42;17.80;99.90
50013;DHT22;35901;48.694;9.476;2022-10-31T11:47:17;17.60;99.90
50013;DHT22;35901;48.694;9.476;2022-10-31T11:49:45;17.40;99.90
50013;DHT22;35901;48.694;9.476;2022-10-31T11:52:24;17.50;99.90
50013;DHT22;35901;48.694;9.476;2022-10-31T11:57:31;17.50;99.90
50013;DHT22;35901;48.694;9.476;2022-10-31T12:00:02;17.40;99.90
50013;DHT22;35901;48.694;9.476;2022-10-31T12:02:37;17.40;99.90
50013;DHT22;35901;48.694;9.476;2022-10-31T12:05:09;17.40;99.90
50013;DHT22;35901;48.694;9.476;2022-10-31T12:07:36;17.50;99.90
50013;DHT22;35901;48.694;9.476;2022-10-31T12:10:09;17.50;99.90
50013;DHT22;35901;48.694;9.476;2022-10-31T12:13:02;17.60;99.90
50013;DHT22;35901;48.694;9.476;2022-10-31T12:15:50;17.70;99.90
50013;DHT22;35901;48.694;9.476;2022-10-31T12:18:53;17.80;99.90
50013;DHT22;35901;48.694;9.476;2022-10-31T12:26:46;18.30;99.90
50013;DHT22;35901;48.694;9.476;2022-10-31T12:40:42;18.00;99.90
50013;DHT22;35901;48.694;9.476;2022-10-31T12:45:57;17.70;99.90
50013;DHT22;35901;48.694;9.476;2022-10-31T12:54:22;17.10;99.90
50013;DHT22;35901;48.694;9.476;2022-10-31T12:59:45;17.00;99.90
50013;DHT22;35901;48.694;9.476;2022-10-31T13:07:39;17.00;99.90
50013;DHT22;35901;48.694;9.476;2022-10-31T13:12:39;16.70;99.90
50013;DHT22;35901;48.694;9.476;2022-10-31T13:15:28;16.70;99.90
50013;DHT22;35901;48.694;9.476;2022-10-31T13:18:05;16.80;99.90
50013;DHT22;35901;48.694;9.476;2022-10-31T13:20:43;16.80;99.90
50013;DHT22;35901;48.694;9.476;2022-10-31T13:23:31;16.80;99.90
50013;DHT22;35901;48.694;9.476;2022-10-31T13:26:02;16.80;99.90
50013;DHT22;35901;48.694;9.476;2022-10-31T13:29:00;16.80;99.90
50013;DHT22;35901;48.694;9.476;2022-10-31T13:31:29;16.80;99.90
50013;DHT22;35901;48.694;9.476;2022-10-31T13:33:58;16.90;99.90
50013;DHT22;35901;48.694;9.476;2022-10-31T13:44:24;16.90;99.90
50013;DHT22;35901;48.694;9.476;2022-10-31T13:46:51;16.90;99.90
50013;DHT22;35901;48.694;9.476;2022-10-31T13:52:14;16.80;99.90
50013;DHT22;35901;48.694;9.476;2022-10-31T13:54:49;16.90;99.90
50013;DHT22;35901;48.694;9.476;2022-10-31T13:57:37;17.00;99.90
50013;DHT22;35901;48.694;9.476;2022-10-31T14:00:22;17.20;99.90
50013;DHT22;35901;48.694;9.476;2022-10-31T14:02:58;17.40;99.90
50013;DHT22;35901;48.694;9.476;2022-10-31T14:05:34;17.60;99.90
50013;DHT22;35901;48.694;9.476;2022-10-31T14:08:02;17.70;99.90
50013;DHT22;35901;48.694;9.476;2022-10-31T14:10:37;17.70;99.90
50013;DHT22;35901;48.694;9.476;2022-10-31T14:16:24;17.50;99.90
50013;DHT22;35901;48.694;9.476;2022-10-31T14:19:00;17.40;99.90
50013;DHT22;35901;48.694;9.476;2022-10-31T14:21:29;17.20;99.90
50013;DHT22;35901;48.694;9.476;2022-10-31T14:23:56;17.10;99.90
50013;DHT22;35901;48.694;9.476;2022-10-31T14:28:53;17.00;99.90
50013;DHT22;35901;48.694;9.476;2022-10-31T14:31:38;17.00;99.90
50013;DHT22;35901;48.694;9.476;2022-10-31T14:34:30;17.00;99.90
50013;DHT22;35901;48.694;9.476;2022-10-31T14:45:21;17.00;99.90
50013;DHT22;35901;48.694;9.476;2022-10-31T14:50:39;16.90;99.90
50013;DHT22;35901;48.694;9.476;2022-10-31T14:53:18;16.80;99.90
50013;DHT22;35901;48.694;9.476;2022-10-31T14:55:48;16.70;99.90
50013;DHT22;35901;48.694;9.476;2022-10-31T14:58:40;16.50;99.90
50013;DHT22;35901;48.694;9.476;2022-10-31T15:01:04;16.30;99.90
50013;DHT22;35901;48.694;9.476;2022-10-31T15:03:33;16.10;99.90
50013;DHT22;35901;48.694;9.476;2022-10-31T15:06:10;15.90;99.90
50013;DHT22;35901;48.694;9.476;2022-10-31T15:08:48;15.90;99.90
50013;DHT22;35901;48.694;9.476;2022-10-31T15:11:17;15.80;99.90
50013;DHT22;35901;48.694;9.476;2022-10-31T15:13:54;15.80;99.90
50013;DHT22;35901;48.694;9.476;2022-10-31T15:16:24;15.70;99.90
50013;DHT22;35901;48.694;9.476;2022-10-31T15:18:56;15.70;99.90
50013;DHT22;35901;48.694;9.476;2022-10-31T15:21:24;15.60;99.90
50013;DHT22;35901;48.694;9.476;2022-10-31T15:23:52;15.50;99.90
50013;DHT22;35901;48.694;9.476;2022-10-31T15:26:20;15.30;99.90
50013;DHT22;35901;48.694;9.476;2022-10-31T15:29:00;15.20;99.90
50013;DHT22;35901;48.694;9.476;2022-10-31T15:31:27;15.00;99.90
50013;DHT22;35901;48.694;9.476;2022-10-31T15:33:53;14.90;99.90
50013;DHT22;35901;48.694;9.476;2022-10-31T15:36:22;14.60;99.90
50013;DHT22;35901;48.694;9.476;2022-10-31T15:38:49;14.50;99.90
50013;DHT22;35901;48.694;9.476;2022-10-31T15:41:31;14.30;99.90
50013;DHT22;35901;48.694;9.476;2022-10-31T15:44:06;14.10;99.90
50013;DHT22;35901;48.694;9.476;2022-10-31T15:46:35;14.00;99.90
50013;DHT22;35901;48.694;9.476;2022-10-31T15:49:01;13.90;99.90
50013;DHT22;35901;48.694;9.476;2022-10-31T15:51:30;13.80;99.90
50013;DHT22;35901;48.694;9.476;2022-10-31T15:53:57;13.60;99.90
50013;DHT22;35901;48.694;9.476;2022-10-31T15:56:29;13.50;99.90
50013;DHT22;35901;48.694;9.476;2022-10-31T15:58:57;13.30;99.90
50013;DHT22;35901;48.694;9.476;2022-10-31T16:01:26;13.20;99.90
50013;DHT22;35901;48.694;9.476;2022-10-31T16:06:34;12.70;99.90
50013;DHT22;35901;48.694;9.476;2022-10-31T16:09:00;12.60;99.90
50013;DHT22;35901;48.694;9.476;2022-10-31T16:16:42;12.00;99.90
50013;DHT22;35901;48.694;9.476;2022-10-31T16:19:16;11.90;99.90
50013;DHT22;35901;48.694;9.476;2022-10-31T16:21:43;11.80;99.90
50013;DHT22;35901;48.694;9.476;2022-10-31T16:26:53;11.60;99.90
50013;DHT22;35901;48.694;9.476;2022-10-31T16:29:28;11.50;99.90
50013;DHT22;35901;48.694;9.476;2022-10-31T16:31:54;11.30;99.90
50013;DHT22;35901;48.694;9.476;2022-10-31T16:34:22;11.20;99.90
50013;DHT22;35901;48.694;9.476;2022-10-31T16:36:48;11.10;99.90
50013;DHT22;35901;48.694;9.476;2022-10-31T16:39:14;11.00;99.90
50013;DHT22;35901;48.694;9.476;2022-10-31T16:41:42;11.00;99.90
50013;DHT22;35901;48.694;9.476;2022-10-31T16:44:21;11.00;99.90
50013;DHT22;35901;48.694;9.476;2022-10-31T16:46:46;11.00;99.90
50013;DHT22;35901;48.694;9.476;2022-10-31T16:49:13;10.90;99.90
50013;DHT22;35901;48.694;9.476;2022-10-31T16:51:41;10.90;99.90
50013;DHT22;35901;48.694;9.476;2022-10-31T16:54:06;10.90;99.90
50013;DHT22;35901;48.694;9.476;2022-10-31T16:56:36;10.80;99.90
50013;DHT22;35901;48.694;9.476;2022-10-31T16:59:04;10.70;99.90
50013;DHT22;35901;48.694;9.476;2022-10-31T17:01:31;10.70;99.90
50013;DHT22;35901;48.694;9.476;2022-10-31T17:03:57;10.70;99.90
50013;DHT22;35901;48.694;9.476;2022-10-31T17:06:23;10.70;99.90
50013;DHT22;35901;48.694;9.476;2022-10-31T17:08:48;10.70;99.90
50013;DHT22;35901;48.694;9.476;2022-10-31T17:11:18;10.70;99.90
50013;DHT22;35901;48.694;9.476;2022-10-31T17:13:44;10.70;99.90
50013;DHT22;35901;48.694;9.476;2022-10-31T17:16:12;10.50;99.90
50013;DHT22;35901;48.694;9.476;2022-10-31T17:18:39;10.40;99.90
50013;DHT22;35901;48.694;9.476;2022-10-31T17:21:05;10.30;99.90
50013;DHT22;35901;48.694;9.476;2022-10-31T17:23:32;10.20;99.90
50013;DHT22;35901;48.694;9.476;2022-10-31T17:25:58;10.10;99.90
50013;DHT22;35901;48.694;9.476;2022-10-31T17:28:25;9.90;99.90
50013;DHT22;35901;48.694;9.476;2022-10-31T17:30:53;9.80;99.90
50013;DHT22;35901;48.694;9.476;2022-10-31T17:33:20;9.70;99.90
50013;DHT22;35901;48.694;9.476;2022-10-31T17:35:46;9.80;99.90
50013;DHT22;35901;48.694;9.476;2022-10-31T17:38:12;9.90;99.90
50013;DHT22;35901;48.694;9.476;2022-10-31T17:40:39;10.00;99.90
50013;DHT22;35901;48.694;9.476;2022-10-31T17:43:08;10.10;99.90
50013;DHT22;35901;48.694;9.476;2022-10-31T17:45:34;10.10;99.90
50013;DHT22;35901;48.694;9.476;2022-10-31T17:48:00;10.10;99.90
50013;DHT22;35901;48.694;9.476;2022-10-31T17:50:26;10.00;99.90
50013;DHT22;35901;48.694;9.476;2022-10-31T17:52:52;10.00;99.90
50013;DHT22;35901;48.694;9.476;2022-10-31T17:55:18;10.00;99.90
50013;DHT22;35901;48.694;9.476;2022-10-31T17:57:45;9.90;99.90
50013;DHT22;35901;48.694;9.476;2022-10-31T18:00:14;9.80;99.90
50013;DHT22;35901;48.694;9.476;2022-10-31T18:02:40;9.60;99.90
50013;DHT22;35901;48.694;9.476;2022-10-31T18:05:06;9.50;99.90
50013;DHT22;35901;48.694;9.476;2022-10-31T18:07:33;9.50;99.90
50013;DHT22;35901;48.694;9.476;2022-10-31T18:09:59;9.50;99.90
50013;DHT22;35901;48.694;9.476;2022-10-31T18:12:26;9.60;99.90
50013;DHT22;35901;48.694;9.476;2022-10-31T18:14:52;9.60;99.90
50013;DHT22;35901;48.694;9.476;2022-10-31T18:17:18;9.50;99.90
50013;DHT22;35901;48.694;9.476;2022-10-31T18:19:44;9.50;99.90
50013;DHT22;35901;48.694;9.476;2022-10-31T18:22:11;9.50;99.90
50013;DHT22;35901;48.694;9.476;2022-10-31T18:24:37;9.30;99.90
50013;DHT22;35901;48.694;9.476;2022-10-31T18:27:03;9.10;99.90
50013;DHT22;35901;48.694;9.476;2022-10-31T18:29:29;8.90;99.90